Time;durP1;ratioP1;P1;durP2;ratioP2;P2;SDS_P1;SDS_P2;PMS_P1;PMS_P2;Temp;Humidity;BMP_temperature;BMP_pressure;BME280_temperature;BME280_humidity;BME280_pressure;Samples;Min_cycle;Max_cycle;Signal;HPM_P1;HPM_P2
2022/05/09 00:00:12;;;;;;;9.40;4.30;;;;;;;18.03;57.80;101386.44;4999821;28;20674;-67
2022/05/09 00:02:41;;;;;;;9.07;3.50;;;;;;;18.00;58.02;101390.34;5004348;28;20253;-67
2022/05/09 00:05:13;;;;;;;13.20;4.43;;;;;;;17.95;57.70;101386.47;5005198;28;20222;-67
2022/05/09 00:07:41;;;;;;;10.20;3.80;;;;;;;17.95;57.24;101383.81;5001415;28;20337;-67
2022/05/09 00:10:10;;;;;;;7.43;3.90;;;;;;;17.92;57.74;101381.50;5004460;28;20228;-67
2022/05/09 00:12:38;;;;;;;9.50;4.33;;;;;;;17.88;57.15;101391.72;5003443;28;20202;-67
2022/05/09 00:15:08;;;;;;;11.17;3.73;;;;;;;17.85;57.56;101381.34;5006947;28;20209;-67
2022/05/09 00:17:36;;;;;;;6.83;3.70;;;;;;;17.84;57.52;101390.41;5006518;28;20233;-67
2022/05/09 00:20:06;;;;;;;6.43;3.53;;;;;;;17.82;57.18;101386.22;5002518;28;20206;-67
2022/05/09 00:22:43;;;;;;;6.97;3.30;;;;;;;17.81;57.32;101388.06;5002161;28;20631;-67
2022/05/09 00:25:11;;;;;;;7.80;3.70;;;;;;;17.78;57.55;101395.59;5002763;28;20297;-67
2022/05/09 00:27:38;;;;;;;6.60;3.57;;;;;;;17.70;57.59;101390.25;5001691;28;20675;-67
2022/05/09 00:30:07;;;;;;;6.77;3.60;;;;;;;17.69;57.52;101389.44;5001721;28;20229;-67
2022/05/09 00:32:35;;;;;;;7.07;3.60;;;;;;;17.66;57.36;101390.63;5003257;28;20216;-67
2022/05/09 00:35:07;;;;;;;6.97;3.70;;;;;;;17.63;57.51;101393.66;5007999;28;20670;-67
2022/05/09 00:37:35;;;;;;;8.43;4.10;;;;;;;17.61;57.54;101398.31;5007333;28;20328;-67
2022/05/09 00:40:05;;;;;;;8.43;3.97;;;;;;;17.63;57.65;101404.38;5011141;28;20585;-67
2022/05/09 00:42:34;;;;;;;10.67;4.30;;;;;;;17.61;57.29;101403.66;5002605;28;20212;-67
2022/05/09 00:45:04;;;;;;;7.50;3.70;;;;;;;17.60;57.59;101402.00;5003780;28;20275;-67
2022/05/09 00:47:32;;;;;;;10.77;4.07;;;;;;;17.55;57.39;101396.31;5009037;28;20908;-67
2022/05/09 00:50:02;;;;;;;5.30;3.60;;;;;;;17.53;57.97;101394.81;5007692;28;20760;-67
2022/05/09 00:52:36;;;;;;;9.20;3.80;;;;;;;17.49;57.55;101398.84;5006803;28;20304;-67
2022/05/09 00:55:10;;;;;;;10.07;3.80;;;;;;;17.49;57.89;101394.34;5005937;28;20229;-67
2022/05/09 00:57:41;;;;;;;11.03;3.80;;;;;;;17.46;57.88;101389.31;5005409;28;20657;-67
2022/05/09 01:00:13;;;;;;;7.43;3.63;;;;;;;17.47;58.04;101388.28;5005543;28;20217;-67
2022/05/09 01:02:45;;;;;;;8.40;3.67;;;;;;;17.43;57.88;101386.09;5008223;28;20654;-68
2022/05/09 01:05:15;;;;;;;12.67;4.27;;;;;;;17.41;58.23;101385.47;5007746;28;20213;-67
2022/05/09 01:07:44;;;;;;;8.50;3.87;;;;;;;17.39;58.36;101384.78;5007047;28;20316;-67
2022/05/09 01:10:15;;;;;;;7.97;4.00;;;;;;;17.38;58.06;101381.28;5003194;28;20550;-67
2022/05/09 01:12:45;;;;;;;8.80;3.87;;;;;;;17.30;58.20;101383.97;5006550;28;20206;-66
2022/05/09 01:15:17;;;;;;;7.87;3.73;;;;;;;17.30;58.73;101383.97;5004100;28;20208;-66
2022/05/09 01:17:48;;;;;;;7.70;4.10;;;;;;;17.28;58.78;101380.63;5006185;28;20706;-66
2022/05/09 01:20:17;;;;;;;9.20;4.27;;;;;;;17.29;58.36;101391.19;5008325;28;20264;-67
2022/05/09 01:22:46;;;;;;;11.33;4.40;;;;;;;17.29;58.77;101393.00;5006195;28;20260;-66
2022/05/09 01:25:16;;;;;;;6.00;4.07;;;;;;;17.26;58.73;101385.31;5008591;28;20574;-66
2022/05/09 01:27:46;;;;;;;7.23;3.70;;;;;;;17.22;59.04;101395.53;5003900;28;20308;-66
2022/05/09 01:30:19;;;;;;;7.87;3.53;;;;;;;17.23;58.96;101391.84;5001866;28;20319;-66
2022/05/09 01:32:51;;;;;;;7.67;3.87;;;;;;;17.20;58.98;101399.38;5003505;28;20517;-66
2022/05/09 01:35:23;;;;;;;5.93;4.03;;;;;;;17.12;59.16;101394.88;5003407;28;20216;-67
2022/05/09 01:37:56;;;;;;;8.40;4.00;;;;;;;17.15;59.19;101393.72;5003796;28;20296;-67
2022/05/09 01:40:24;;;;;;;6.00;3.97;;;;;;;17.09;59.45;101399.72;5007223;28;20224;-67
2022/05/09 01:42:52;;;;;;;11.07;3.67;;;;;;;17.10;59.08;101396.88;5007020;28;20327;-66
2022/05/09 01:45:20;;;;;;;6.03;3.90;;;;;;;17.08;59.51;101398.03;5002847;28;20300;-66
2022/05/09 01:50:43;;;;;;;8.47;3.93;;;;;;;17.05;59.50;101398.41;5008143;28;20222;-66
2022/05/09 01:53:16;;;;;;;7.50;4.00;;;;;;;17.05;59.78;101403.75;5008949;28;20229;-66
2022/05/09 01:55:44;;;;;;;8.87;4.00;;;;;;;17.03;59.83;101401.25;5003545;28;20265;-66
2022/05/09 01:58:18;;;;;;;8.63;4.27;;;;;;;16.99;60.03;101399.03;5004657;28;20213;-66
2022/05/09 02:00:46;;;;;;;8.70;4.33;;;;;;;16.96;59.66;101399.41;5010798;28;20295;-66
2022/05/09 02:03:13;;;;;;;10.17;3.93;;;;;;;16.92;60.15;101397.03;5006395;28;20245;-66
2022/05/09 02:05:41;;;;;;;6.67;4.03;;;;;;;16.89;60.13;101407.25;5004183;28;20227;-66
2022/05/09 02:08:10;;;;;;;9.00;4.53;;;;;;;16.90;60.26;101401.72;5005842;28;20259;-66
2022/05/09 02:10:41;;;;;;;10.47;4.73;;;;;;;16.91;60.27;101407.91;5004586;28;20310;-67
2022/05/09 02:13:09;;;;;;;8.00;4.03;;;;;;;16.90;60.16;101407.09;5008969;28;20205;-67
2022/05/09 02:15:37;;;;;;;11.47;4.43;;;;;;;16.86;60.48;101405.75;5003386;28;20214;-66
2022/05/09 02:18:05;;;;;;;10.20;4.73;;;;;;;16.84;60.28;101407.75;5004022;28;20219;-67
2022/05/09 02:20:33;;;;;;;11.80;4.37;;;;;;;16.84;60.22;101401.56;5008396;28;20209;-67
2022/05/09 02:23:01;;;;;;;8.90;4.10;;;;;;;16.84;60.37;101405.06;5007741;28;20215;-67
2022/05/09 02:25:30;;;;;;;9.33;4.20;;;;;;;16.83;60.13;101395.38;5005801;28;20307;-66
2022/05/09 02:28:12;;;;;;;9.83;4.30;;;;;;;16.81;60.34;101396.53;5010875;28;20705;-66
2022/05/09 02:30:40;;;;;;;5.60;3.70;;;;;;;16.77;60.40;101390.69;5008421;28;20323;-66
2022/05/09 02:33:10;;;;;;;6.97;3.77;;;;;;;16.76;60.51;101391.69;5007125;28;20898;-66
2022/05/09 02:35:38;;;;;;;9.67;3.90;;;;;;;16.73;60.55;101393.84;5005783;28;20646;-66
2022/05/09 02:38:06;;;;;;;7.00;4.20;;;;;;;16.70;60.83;101397.72;5008227;28;20202;-67
2022/05/09 02:40:34;;;;;;;7.90;4.60;;;;;;;16.67;60.75;101394.50;5006929;28;20221;-66
2022/05/09 02:43:03;;;;;;;7.67;3.67;;;;;;;16.68;60.63;101396.19;5008035;28;20260;-67
2022/05/09 02:45:33;;;;;;;8.03;4.23;;;;;;;16.66;61.22;101406.22;5004309;28;20220;-66
2022/05/09 02:48:00;;;;;;;8.63;4.40;;;;;;;16.62;61.30;101397.69;5002353;28;20634;-66
2022/05/09 02:50:29;;;;;;;9.93;4.33;;;;;;;16.60;61.23;101402.34;5008035;28;20268;-66
2022/05/09 02:52:57;;;;;;;9.17;4.83;;;;;;;16.57;61.30;101391.94;5008941;28;20244;-66
2022/05/09 02:55:25;;;;;;;11.10;4.60;;;;;;;16.53;61.54;101401.34;5014077;28;20243;-66
2022/05/09 02:57:52;;;;;;;7.13;4.20;;;;;;;16.51;61.99;101397.97;5002009;28;20300;-66
2022/05/09 03:00:22;;;;;;;10.70;4.40;;;;;;;16.47;61.94;101396.63;5001122;28;20211;-66
2022/05/09 03:05:39;;;;;;;7.67;4.23;;;;;;;16.50;61.95;101398.97;4955010;28;20311;-66
2022/05/09 03:08:07;;;;;;;9.70;5.33;;;;;;;16.45;62.29;101396.78;5006386;28;20580;-67
2022/05/09 03:10:35;;;;;;;10.60;5.60;;;;;;;16.40;62.65;101387.56;5003032;28;20288;-66
2022/05/09 03:13:05;;;;;;;10.57;4.70;;;;;;;16.42;62.95;101388.25;5005023;28;20233;-66
2022/05/09 03:15:36;;;;;;;7.27;4.20;;;;;;;16.44;62.62;101383.56;5002284;28;20402;-66
2022/05/09 03:18:06;;;;;;;12.00;5.43;;;;;;;16.38;62.96;101382.38;5002200;28;20217;-66
2022/05/09 03:20:34;;;;;;;9.40;4.83;;;;;;;16.40;63.15;101376.84;5006359;28;20232;-66
2022/05/09 03:23:02;;;;;;;6.97;4.30;;;;;;;16.39;62.94;101383.22;5005124;28;20296;-66
2022/05/09 03:25:30;;;;;;;13.07;5.23;;;;;;;16.33;63.21;101386.56;5008841;28;20628;-66
2022/05/09 03:27:58;;;;;;;6.87;4.77;;;;;;;16.30;63.37;101384.19;5001702;28;20205;-67
2022/05/09 03:30:26;;;;;;;9.43;5.13;;;;;;;16.32;63.47;101385.72;5001568;28;20218;-66
2022/05/09 03:32:53;;;;;;;9.73;5.67;;;;;;;16.29;63.62;101385.19;5001700;28;20233;-66
2022/05/09 03:35:23;;;;;;;7.27;5.20;;;;;;;16.23;63.53;101385.84;5006430;28;20340;-66
2022/05/09 03:37:52;;;;;;;9.40;4.83;;;;;;;16.16;63.86;101385.66;5001493;28;20224;-66
2022/05/09 03:40:21;;;;;;;6.47;4.53;;;;;;;16.13;63.82;101386.81;5003141;28;20673;-66
2022/05/09 03:42:49;;;;;;;11.40;5.23;;;;;;;16.12;63.85;101389.66;5002604;28;20216;-66
2022/05/09 03:45:17;;;;;;;7.57;4.50;;;;;;;16.15;63.80;101400.88;5004270;28;20244;-66
2022/05/09 03:47:47;;;;;;;7.87;4.67;;;;;;;16.12;63.56;101393.16;5004021;28;20320;-66
2022/05/09 03:50:15;;;;;;;7.37;4.27;;;;;;;16.09;63.79;101396.19;5007015;28;20213;-66
2022/05/09 03:52:45;;;;;;;14.50;5.77;;;;;;;16.18;63.71;101403.22;5003863;28;20597;-66
2022/05/09 03:55:13;;;;;;;8.73;4.40;;;;;;;16.12;63.73;101403.88;5008785;28;20341;-67
2022/05/09 03:57:47;;;;;;;8.80;4.80;;;;;;;16.11;63.89;101404.03;5004112;28;20279;-67
2022/05/09 04:00:18;;;;;;;9.40;4.80;;;;;;;16.06;63.77;101401.84;5001224;28;20232;-67
2022/05/09 04:02:48;;;;;;;11.50;4.60;;;;;;;16.05;64.00;101404.69;5002222;28;20214;-67
2022/05/09 04:05:19;;;;;;;7.23;4.40;;;;;;;16.00;63.96;101404.34;5002998;28;20518;-67
2022/05/09 04:07:50;;;;;;;11.83;5.00;;;;;;;15.99;64.10;101406.19;5003065;28;20208;-68
2022/05/09 04:10:20;;;;;;;11.60;5.30;;;;;;;15.99;63.88;101403.50;5004068;28;20901;-67
2022/05/09 04:12:48;;;;;;;9.10;4.47;;;;;;;15.99;63.92;101405.34;5007076;28;20222;-67
2022/05/09 04:18:02;;;;;;;9.23;5.03;;;;;;;15.91;63.82;101414.16;5007598;28;20214;-67
2022/05/09 04:20:30;;;;;;;9.07;4.67;;;;;;;15.92;64.06;101407.78;5023734;28;20274;-67
2022/05/09 04:23:00;;;;;;;12.87;5.07;;;;;;;15.90;63.81;101412.47;5014392;28;20209;-67
2022/05/09 04:25:31;;;;;;;9.73;4.87;;;;;;;15.95;63.84;101414.66;5017835;28;20205;-67
2022/05/09 04:27:59;;;;;;;13.30;5.07;;;;;;;15.97;63.62;101418.03;5010913;28;20202;-67
2022/05/09 04:30:27;;;;;;;9.17;4.47;;;;;;;15.99;63.52;101411.53;5008060;28;20214;-67
2022/05/09 04:32:55;;;;;;;9.37;4.80;;;;;;;15.95;63.54;101417.34;5007199;28;20235;-67
2022/05/09 04:35:23;;;;;;;9.47;4.57;;;;;;;16.00;63.62;101415.88;5005351;28;20209;-66
2022/05/09 04:37:53;;;;;;;11.07;4.90;;;;;;;15.97;63.66;101413.50;5008534;28;21042;-67
2022/05/09 04:40:25;;;;;;;7.87;4.73;;;;;;;15.97;63.65;101424.22;5011382;28;20299;-67
2022/05/09 04:42:53;;;;;;;10.87;5.17;;;;;;;15.95;63.81;101420.84;5005876;28;20209;-66
2022/05/09 04:45:21;;;;;;;11.17;4.90;;;;;;;15.96;63.93;101422.53;5007999;28;20217;-67
2022/05/09 04:47:50;;;;;;;9.13;4.60;;;;;;;15.97;63.75;101428.72;5008973;28;20216;-66
2022/05/09 04:50:22;;;;;;;10.93;4.90;;;;;;;15.97;63.96;101424.22;5013740;28;20240;-66
2022/05/09 04:52:50;;;;;;;7.80;4.90;;;;;;;16.02;63.87;101429.06;5004779;28;20335;-66
2022/05/09 04:55:18;;;;;;;10.43;4.87;;;;;;;16.07;63.56;101424.94;5014000;28;20233;-66
2022/05/09 04:57:49;;;;;;;9.53;5.03;;;;;;;16.07;63.65;101424.09;5010358;28;20241;-66
2022/05/09 05:00:19;;;;;;;9.93;4.60;;;;;;;16.08;64.05;101431.97;5007405;28;20299;-66
2022/05/09 05:02:47;;;;;;;6.70;4.80;;;;;;;16.09;63.83;101428.28;5008254;28;20440;-66
2022/05/09 05:05:15;;;;;;;8.83;4.83;;;;;;;16.06;63.99;101427.75;5011809;28;20214;-66
2022/05/09 05:07:43;;;;;;;13.13;4.73;;;;;;;16.10;64.04;101419.25;5011329;28;20213;-66
2022/05/09 05:10:12;;;;;;;9.40;5.33;;;;;;;16.12;64.29;101424.44;5014787;28;20252;-66
2022/05/09 05:12:40;;;;;;;9.27;4.63;;;;;;;16.12;64.28;101438.66;5017326;28;20232;-67
2022/05/09 05:15:10;;;;;;;10.47;5.33;;;;;;;16.12;64.38;101427.94;5009214;28;20219;-66
2022/05/09 05:17:39;;;;;;;11.73;5.30;;;;;;;16.17;64.83;101431.00;5009464;28;20221;-67
2022/05/09 05:20:10;;;;;;;10.90;6.03;;;;;;;16.22;64.51;101432.34;5009350;28;20213;-67
2022/05/09 05:22:39;;;;;;;16.23;5.93;;;;;;;16.27;64.80;101436.19;5008559;28;20231;-67
2022/05/09 05:25:08;;;;;;;13.53;5.90;;;;;;;16.30;64.88;101441.25;5009185;28;20246;-67
2022/05/09 05:27:35;;;;;;;12.00;5.77;;;;;;;16.38;64.44;101443.94;5022669;28;20214;-67
2022/05/09 05:30:03;;;;;;;14.50;6.43;;;;;;;16.40;64.80;101444.63;5013929;28;20313;-67
2022/05/09 05:32:37;;;;;;;15.73;7.03;;;;;;;16.44;64.52;101446.00;5015670;28;20227;-67
2022/05/09 05:35:07;;;;;;;13.00;6.63;;;;;;;16.49;64.26;101457.03;5011262;28;20539;-68
2022/05/09 05:37:35;;;;;;;8.83;5.60;;;;;;;16.45;64.63;101453.00;5006834;28;20209;-67
2022/05/09 05:40:04;;;;;;;12.27;5.83;;;;;;;16.46;64.39;101453.84;5009807;28;20305;-67
2022/05/09 05:42:33;;;;;;;9.63;5.97;;;;;;;16.55;64.28;101466.25;5012055;28;20251;-67
2022/05/09 05:45:01;;;;;;;10.83;6.07;;;;;;;16.58;64.22;101460.56;5010322;28;20210;-67
2022/05/09 05:47:28;;;;;;;13.63;7.20;;;;;;;16.65;64.30;101458.09;5005679;28;20209;-67
2022/05/09 05:49:58;;;;;;;9.33;5.97;;;;;;;16.62;64.10;101461.97;5003948;28;20209;-67
2022/05/09 05:52:31;;;;;;;14.63;6.80;;;;;;;16.67;64.07;101458.78;5007339;28;20716;-67
2022/05/09 05:54:59;;;;;;;12.30;6.23;;;;;;;16.74;64.09;101454.44;5007142;28;20272;-67
2022/05/09 05:57:28;;;;;;;15.37;6.63;;;;;;;16.79;64.10;101463.69;5003781;28;20313;-66
2022/05/09 05:59:57;;;;;;;12.80;6.47;;;;;;;16.79;64.00;101463.69;5007178;28;20289;-67
2022/05/09 06:02:27;;;;;;;11.40;6.67;;;;;;;16.83;64.00;101465.00;5006273;28;21984;-67
2022/05/09 06:04:56;;;;;;;15.40;6.70;;;;;;;16.85;64.10;101465.69;5005998;28;20304;-67
2022/05/09 06:07:25;;;;;;;11.77;7.03;;;;;;;16.94;64.11;101471.91;5006613;28;20217;-67
